createdAt,value
2023-02-20T00:00:06.576Z,480.30
2023-02-20T00:00:17.563Z,480.23
2023-02-20T00:00:28.560Z,480.15
2023-02-20T00:00:39.543Z,480.04
2023-02-20T00:00:50.531Z,480.06
2023-02-20T00:01:01.624Z,480.01
2023-02-20T00:01:13.863Z,480.24
2023-02-20T00:01:25.614Z,480.17
2023-02-20T00:01:37.561Z,480.21
2023-02-20T00:01:48.811Z,480.53
2023-02-20T00:01:59.532Z,480.70
2023-02-20T00:02:10.559Z,480.47
2023-02-20T00:02:21.576Z,480.52
2023-02-20T00:02:33.611Z,480.44
2023-02-20T00:02:44.672Z,480.33
2023-02-20T00:02:56.625Z,480.41
2023-02-20T00:03:08.573Z,480.56
2023-02-20T00:03:19.580Z,480.34
2023-02-20T00:03:31.693Z,480.19
2023-02-20T00:03:43.648Z,480.35
2023-02-20T00:03:54.575Z,480.71
2023-02-20T00:04:06.571Z,480.92
2023-02-20T00:04:17.572Z,480.82
2023-02-20T00:04:28.553Z,480.62
2023-02-20T00:04:39.532Z,480.98
2023-02-20T00:04:50.626Z,480.98
2023-02-20T00:05:02.597Z,481.01
2023-02-20T00:05:14.563Z,481.16
2023-02-20T00:05:25.578Z,481.06
2023-02-20T00:05:36.556Z,481.05
2023-02-20T00:05:47.544Z,480.97
2023-02-20T00:05:58.584Z,481.02
2023-02-20T00:06:09.830Z,481.20
2023-02-20T00:06:21.603Z,481.14
2023-02-20T00:06:33.564Z,481.11
2023-02-20T00:06:44.555Z,481.17
2023-02-20T00:06:55.558Z,481.12
2023-02-20T00:07:06.541Z,481.05
2023-02-20T00:07:17.548Z,481.01
2023-02-20T00:07:28.536Z,481.00
2023-02-20T00:07:39.533Z,481.06
2023-02-20T00:07:50.605Z,481.40
2023-02-20T00:08:02.573Z,481.24
2023-02-20T00:08:13.574Z,481.10
2023-02-20T00:08:24.561Z,481.19
2023-02-20T00:08:35.574Z,481.26
2023-02-20T00:08:46.569Z,481.38
2023-02-20T00:08:57.578Z,481.29
2023-02-20T00:09:08.564Z,481.26
2023-02-20T00:09:19.553Z,481.29
2023-02-20T00:09:30.545Z,481.42
2023-02-20T00:09:41.545Z,481.37
2023-02-20T00:09:52.538Z,481.61
2023-02-20T00:10:03.547Z,481.56
2023-02-20T00:10:14.620Z,481.60
2023-02-20T00:10:26.585Z,481.60
2023-02-20T00:10:37.580Z,481.63
2023-02-20T00:10:48.564Z,481.77
2023-02-20T00:10:59.552Z,481.81
2023-02-20T00:11:10.553Z,481.88
2023-02-20T00:11:21.566Z,481.71
2023-02-20T00:11:32.579Z,481.65
2023-02-20T00:11:43.567Z,481.86
2023-02-20T00:11:54.559Z,481.75
2023-02-20T00:12:05.564Z,481.64
2023-02-20T00:12:16.570Z,481.64
2023-02-20T00:12:28.567Z,481.66
2023-02-20T00:12:39.556Z,481.67
2023-02-20T00:12:50.541Z,481.70
2023-02-20T00:13:01.542Z,481.72
2023-02-20T00:13:12.548Z,481.67
2023-02-20T00:13:23.541Z,481.62
2023-02-20T00:13:34.546Z,481.69
2023-02-20T00:13:45.537Z,481.51
2023-02-20T00:13:56.618Z,481.48
2023-02-20T00:14:08.575Z,481.47
2023-02-20T00:14:19.562Z,481.60
2023-02-20T00:14:30.532Z,481.64
2023-02-20T00:14:41.542Z,481.60
2023-02-20T00:14:52.623Z,481.61
2023-02-20T00:15:04.581Z,481.55
2023-02-20T00:15:16.579Z,481.74
2023-02-20T00:15:28.595Z,481.43
2023-02-20T00:15:40.621Z,481.50
2023-02-20T00:15:52.662Z,481.47
2023-02-20T00:16:04.599Z,481.40
2023-02-20T00:16:15.532Z,481.45
2023-02-20T00:16:26.529Z,481.30
2023-02-20T00:16:37.623Z,481.25
2023-02-20T00:16:49.585Z,481.03
2023-02-20T00:17:00.571Z,481.10
2023-02-20T00:17:11.588Z,481.39
2023-02-20T00:17:22.564Z,481.37
2023-02-20T00:17:33.551Z,481.26
2023-02-20T00:17:44.549Z,481.39
2023-02-20T00:17:55.534Z,481.40
2023-02-20T00:18:06.536Z,481.26
2023-02-20T00:18:17.540Z,481.18
2023-02-20T00:18:28.527Z,481.20
2023-02-20T00:18:39.553Z,481.35
2023-02-20T00:18:50.544Z,481.45
2023-02-20T00:19:01.535Z,481.51
2023-02-20T00:19:12.575Z,481.44
2023-02-20T00:19:23.628Z,481.57
2023-02-20T00:19:35.573Z,481.67
2023-02-20T00:19:46.556Z,481.46
2023-02-20T00:19:57.543Z,481.40
2023-02-20T00:20:08.544Z,481.50
2023-02-20T00:20:19.538Z,481.47
2023-02-20T00:20:30.609Z,481.39
2023-02-20T00:20:42.579Z,481.24
2023-02-20T00:20:53.585Z,481.16
2023-02-20T00:21:04.566Z,481.23
2023-02-20T00:21:15.666Z,481.23
2023-02-20T00:21:26.568Z,481.05
2023-02-20T00:21:37.571Z,480.96
2023-02-20T00:21:49.578Z,480.79
2023-02-20T00:22:00.581Z,481.22
2023-02-20T00:22:11.562Z,481.58
2023-02-20T00:22:22.581Z,481.27
2023-02-20T00:22:33.570Z,481.05
2023-02-20T00:22:44.572Z,481.00
2023-02-20T00:22:55.573Z,481.09
2023-02-20T00:23:06.558Z,480.85
2023-02-20T00:23:17.554Z,480.88
2023-02-20T00:23:28.556Z,481.21
2023-02-20T00:23:39.551Z,481.38
2023-02-20T00:23:50.547Z,481.26
2023-02-20T00:24:01.534Z,481.26
2023-02-20T00:24:12.532Z,481.10
2023-02-20T00:24:23.534Z,480.81
2023-02-20T00:24:34.543Z,480.91
2023-02-20T00:24:45.527Z,481.13
2023-02-20T00:24:56.631Z,481.14
2023-02-20T00:25:08.596Z,481.13
2023-02-20T00:25:19.590Z,481.05
2023-02-20T00:25:31.588Z,481.04
2023-02-20T00:25:42.585Z,481.09
2023-02-20T00:25:53.593Z,481.58
2023-02-20T00:26:04.584Z,481.61
2023-02-20T00:26:15.850Z,481.25
2023-02-20T00:26:27.592Z,481.44
2023-02-20T00:26:39.580Z,481.54
2023-02-20T00:26:50.570Z,481.53
2023-02-20T00:27:01.568Z,481.41
2023-02-20T00:27:12.605Z,481.40
2023-02-20T00:27:23.601Z,481.30
2023-02-20T00:27:34.585Z,481.47
2023-02-20T00:27:46.573Z,481.59
2023-02-20T00:27:57.566Z,481.58
2023-02-20T00:28:08.580Z,481.41
2023-02-20T00:28:20.562Z,481.57
2023-02-20T00:28:31.552Z,481.76
2023-02-20T00:28:42.544Z,481.73
2023-02-20T00:28:53.551Z,481.81
2023-02-20T00:29:04.540Z,481.88
2023-02-20T00:29:15.545Z,481.81
2023-02-20T00:29:26.534Z,481.78
2023-02-20T00:29:37.530Z,481.74
2023-02-20T00:29:48.617Z,481.66
2023-02-20T00:30:00.614Z,481.62
2023-02-20T00:30:12.617Z,481.97
2023-02-20T00:30:24.631Z,482.04
2023-02-20T00:30:36.684Z,481.98
2023-02-20T00:30:47.611Z,481.99
2023-02-20T00:30:59.592Z,482.16
2023-02-20T00:31:11.582Z,481.90
2023-02-20T00:31:23.707Z,482.11
2023-02-20T00:31:35.565Z,482.33
2023-02-20T00:31:46.557Z,482.15
2023-02-20T00:31:57.619Z,482.26
2023-02-20T00:32:08.621Z,482.40
2023-02-20T00:32:19.530Z,482.59
2023-02-20T00:32:30.547Z,482.60
2023-02-20T00:32:41.591Z,482.49
2023-02-20T00:32:52.575Z,482.56
2023-02-20T00:33:03.563Z,482.55
2023-02-20T00:33:14.580Z,482.39
2023-02-20T00:33:25.576Z,482.38
2023-02-20T00:33:36.562Z,482.60
2023-02-20T00:33:47.556Z,482.70
2023-02-20T00:33:58.554Z,482.71
2023-02-20T00:34:09.557Z,482.52
2023-02-20T00:34:20.559Z,482.55
2023-02-20T00:34:31.557Z,482.50
2023-02-20T00:34:42.559Z,482.34
2023-02-20T00:34:53.562Z,482.42
2023-02-20T00:35:04.579Z,482.46
2023-02-20T00:35:15.578Z,482.32
2023-02-20T00:35:26.570Z,482.32
2023-02-20T00:35:37.563Z,482.50
2023-02-20T00:35:49.565Z,482.31
2023-02-20T00:36:00.589Z,482.29
2023-02-20T00:36:12.893Z,482.36
2023-02-20T00:36:24.590Z,482.50
2023-02-20T00:36:36.590Z,482.39
2023-02-20T00:36:48.561Z,482.27
2023-02-20T00:36:59.551Z,482.29
2023-02-20T00:37:10.566Z,482.07
2023-02-20T00:37:21.575Z,482.12
2023-02-20T00:37:32.542Z,482.11
2023-02-20T00:37:43.541Z,482.12
2023-02-20T00:37:54.539Z,482.27
2023-02-20T00:38:05.554Z,482.14
2023-02-20T00:38:16.592Z,482.02
2023-02-20T00:38:27.592Z,481.84
2023-02-20T00:38:38.582Z,481.62
2023-02-20T00:38:50.581Z,482.05
2023-02-20T00:39:01.538Z,482.29
2023-02-20T00:39:12.604Z,482.36
2023-02-20T00:39:23.590Z,482.48
2023-02-20T00:39:35.571Z,482.44
2023-02-20T00:39:46.566Z,482.81
2023-02-20T00:39:57.583Z,482.61
2023-02-20T00:40:08.580Z,482.45
2023-02-20T00:40:19.572Z,482.59
2023-02-20T00:40:30.599Z,482.77
2023-02-20T00:40:41.584Z,482.71
2023-02-20T00:40:53.563Z,482.92
2023-02-20T00:41:04.536Z,483.22
2023-02-20T00:41:15.689Z,483.15
2023-02-20T00:41:26.582Z,483.27
2023-02-20T00:41:37.577Z,483.60
2023-02-20T00:41:48.565Z,483.52
2023-02-20T00:41:59.590Z,483.53
2023-02-20T00:42:10.574Z,483.82
2023-02-20T00:42:21.578Z,483.89
2023-02-20T00:42:32.558Z,484.02
2023-02-20T00:42:43.548Z,484.09
2023-02-20T00:42:54.573Z,484.20
2023-02-20T00:43:05.591Z,484.40
2023-02-20T00:43:16.583Z,484.47
2023-02-20T00:43:27.599Z,484.58
2023-02-20T00:43:39.583Z,484.75
2023-02-20T00:43:50.577Z,484.64
2023-02-20T00:44:01.566Z,484.58
2023-02-20T00:44:12.558Z,484.81
2023-02-20T00:44:23.534Z,484.83
2023-02-20T00:44:34.625Z,484.52
2023-02-20T00:44:46.584Z,484.28
2023-02-20T00:44:57.582Z,484.15
2023-02-20T00:45:08.588Z,484.08
2023-02-20T00:45:19.592Z,484.04
2023-02-20T00:45:30.596Z,483.58
2023-02-20T00:45:42.586Z,484.03
2023-02-20T00:45:54.579Z,484.12
2023-02-20T00:46:05.621Z,483.92
2023-02-20T00:46:16.779Z,483.60
2023-02-20T00:46:27.656Z,483.21
2023-02-20T00:46:39.670Z,482.91
2023-02-20T00:46:51.630Z,482.86
2023-02-20T00:47:03.626Z,482.87
2023-02-20T00:47:15.575Z,482.98
2023-02-20T00:47:26.578Z,483.16
2023-02-20T00:47:37.587Z,483.24
2023-02-20T00:47:48.597Z,483.21
2023-02-20T00:47:59.584Z,482.74
2023-02-20T00:48:10.596Z,482.46
2023-02-20T00:48:21.581Z,482.26
2023-02-20T00:48:32.592Z,482.29
2023-02-20T00:48:43.589Z,482.01
2023-02-20T00:48:55.559Z,482.01
2023-02-20T00:49:06.540Z,482.02
2023-02-20T00:49:17.547Z,481.87
2023-02-20T00:49:28.537Z,481.83
2023-02-20T00:49:39.618Z,481.90
2023-02-20T00:49:51.577Z,481.83
2023-02-20T00:50:02.584Z,481.69
2023-02-20T00:50:13.597Z,481.61
2023-02-20T00:50:25.559Z,481.88
2023-02-20T00:50:36.553Z,481.89
2023-02-20T00:50:47.570Z,481.92
2023-02-20T00:50:59.559Z,482.04
2023-02-20T00:51:10.558Z,482.06
2023-02-20T00:51:21.551Z,482.07
2023-02-20T00:51:32.534Z,482.07
2023-02-20T00:51:43.619Z,482.02
2023-02-20T00:51:55.594Z,482.22
2023-02-20T00:52:07.583Z,482.47
2023-02-20T00:52:18.575Z,482.25
2023-02-20T00:52:29.579Z,482.33
2023-02-20T00:52:40.571Z,482.44
2023-02-20T00:52:51.574Z,482.55
2023-02-20T00:53:02.574Z,482.49
2023-02-20T00:53:13.571Z,482.70
2023-02-20T00:53:24.556Z,482.85
2023-02-20T00:53:35.545Z,482.72
2023-02-20T00:53:46.545Z,482.52
2023-02-20T00:53:57.567Z,482.44
2023-02-20T00:54:08.598Z,482.70
2023-02-20T00:54:19.741Z,482.69
2023-02-20T00:54:31.602Z,482.83
2023-02-20T00:54:43.566Z,482.73
2023-02-20T00:54:54.552Z,482.76
2023-02-20T00:55:05.560Z,482.99
2023-02-20T00:55:16.586Z,482.96
2023-02-20T00:55:28.565Z,483.39
2023-02-20T00:55:39.559Z,483.23
2023-02-20T00:55:50.561Z,483.12
2023-02-20T00:56:02.565Z,483.15
2023-02-20T00:56:13.850Z,483.18
2023-02-20T00:56:24.541Z,483.24
2023-02-20T00:56:35.544Z,483.58
2023-02-20T00:56:46.539Z,483.59
2023-02-20T00:56:57.652Z,483.34
2023-02-20T00:57:09.601Z,483.33
2023-02-20T00:57:20.598Z,483.62
2023-02-20T00:57:32.563Z,483.61
2023-02-20T00:57:43.554Z,483.63
2023-02-20T00:57:54.574Z,483.71
2023-02-20T00:58:05.558Z,483.71
2023-02-20T00:58:16.545Z,483.75
2023-02-20T00:58:27.630Z,483.85
2023-02-20T00:58:39.594Z,483.83
2023-02-20T00:58:51.558Z,483.86
2023-02-20T00:59:02.564Z,483.72
2023-02-20T00:59:13.553Z,483.55
2023-02-20T00:59:24.574Z,483.49
2023-02-20T00:59:35.568Z,483.45
2023-02-20T00:59:46.554Z,483.53
2023-02-20T00:59:57.551Z,483.61
2023-02-20T01:00:08.567Z,483.60
2023-02-20T01:00:19.645Z,483.45
2023-02-20T01:00:30.618Z,483.40
2023-02-20T01:00:42.572Z,483.32
2023-02-20T01:00:53.556Z,483.50
2023-02-20T01:01:04.536Z,483.48
2023-02-20T01:01:15.551Z,483.54
2023-02-20T01:01:26.553Z,483.50
2023-02-20T01:01:37.606Z,483.36
2023-02-20T01:01:48.666Z,483.60
2023-02-20T01:02:00.546Z,483.86
2023-02-20T01:02:11.554Z,483.82
2023-02-20T01:02:22.542Z,483.54
2023-02-20T01:02:33.575Z,483.34
2023-02-20T01:02:44.664Z,483.23
2023-02-20T01:02:55.634Z,483.28
2023-02-20T01:03:07.561Z,483.86
2023-02-20T01:03:18.568Z,483.72
2023-02-20T01:03:29.554Z,483.54
2023-02-20T01:03:40.558Z,483.67
2023-02-20T01:03:51.551Z,483.62
2023-02-20T01:04:02.568Z,483.55
2023-02-20T01:04:13.589Z,483.74
2023-02-20T01:04:24.582Z,483.92
2023-02-20T01:04:35.556Z,484.22
2023-02-20T01:04:46.559Z,483.93
2023-02-20T01:04:57.563Z,483.97
2023-02-20T01:05:08.548Z,484.30
2023-02-20T01:05:19.549Z,483.74
2023-02-20T01:05:30.625Z,483.77
2023-02-20T01:05:42.587Z,483.79
2023-02-20T01:05:53.588Z,483.79
2023-02-20T01:06:04.570Z,483.48
2023-02-20T01:06:15.563Z,483.70
2023-02-20T01:06:26.544Z,483.64
2023-02-20T01:06:37.546Z,483.65
2023-02-20T01:06:48.554Z,483.53
2023-02-20T01:06:59.540Z,483.21
2023-02-20T01:07:10.618Z,483.48
2023-02-20T01:07:22.580Z,483.60
2023-02-20T01:07:33.584Z,483.30
2023-02-20T01:07:44.576Z,483.21
2023-02-20T01:07:55.574Z,483.25
2023-02-20T01:08:06.572Z,483.21
2023-02-20T01:08:17.553Z,483.20
2023-02-20T01:08:28.632Z,482.87
2023-02-20T01:08:40.602Z,483.34
2023-02-20T01:08:51.594Z,483.50
2023-02-20T01:09:02.586Z,483.41
2023-02-20T01:09:13.605Z,482.96
2023-02-20T01:09:24.588Z,482.97
2023-02-20T01:09:35.585Z,483.05
2023-02-20T01:09:47.572Z,483.11
2023-02-20T01:09:58.562Z,483.32
2023-02-20T01:10:09.569Z,483.37
2023-02-20T01:10:20.562Z,483.59
2023-02-20T01:10:31.551Z,483.28
2023-02-20T01:10:42.583Z,483.11
2023-02-20T01:10:53.562Z,483.03
2023-02-20T01:11:04.577Z,483.05
2023-02-20T01:11:15.557Z,483.02
2023-02-20T01:11:26.551Z,483.07
2023-02-20T01:11:37.561Z,482.82
2023-02-20T01:11:48.581Z,482.85
2023-02-20T01:11:59.570Z,482.81
2023-02-20T01:12:10.584Z,482.79
2023-02-20T01:12:22.577Z,483.03
2023-02-20T01:12:33.565Z,482.99
2023-02-20T01:12:44.576Z,482.89
2023-02-20T01:12:55.557Z,482.66
2023-02-20T01:13:06.556Z,482.68
2023-02-20T01:13:17.560Z,482.60
2023-02-20T01:13:28.545Z,482.66
2023-02-20T01:13:39.624Z,482.57
2023-02-20T01:13:51.574Z,482.63
2023-02-20T01:14:02.569Z,482.57
2023-02-20T01:14:13.572Z,482.67
2023-02-20T01:14:25.572Z,482.50
2023-02-20T01:14:36.562Z,482.55
2023-02-20T01:14:47.568Z,482.90
2023-02-20T01:14:58.559Z,482.67
2023-02-20T01:15:09.537Z,482.72
2023-02-20T01:15:20.528Z,482.75
2023-02-20T01:15:31.540Z,482.73
2023-02-20T01:15:42.593Z,482.79
2023-02-20T01:15:54.582Z,482.60
2023-02-20T01:16:05.629Z,482.64
2023-02-20T01:16:17.712Z,482.63
2023-02-20T01:16:29.634Z,482.07
2023-02-20T01:16:41.610Z,482.20
2023-02-20T01:16:53.579Z,482.36
2023-02-20T01:17:05.575Z,482.55
2023-02-20T01:17:16.548Z,482.21
2023-02-20T01:17:27.550Z,482.21
2023-02-20T01:17:38.626Z,482.31
2023-02-20T01:17:50.528Z,482.24
2023-02-20T01:18:01.558Z,482.42
2023-02-20T01:18:12.544Z,482.35
2023-02-20T01:18:23.530Z,482.19
2023-02-20T01:18:34.576Z,482.50
2023-02-20T01:18:45.588Z,482.52
2023-02-20T01:18:56.571Z,482.29
2023-02-20T01:19:07.560Z,482.45
2023-02-20T01:19:18.558Z,482.53
2023-02-20T01:19:29.558Z,482.68
2023-02-20T01:19:40.567Z,482.69
2023-02-20T01:19:51.548Z,482.59
2023-02-20T01:20:02.548Z,482.52
2023-02-20T01:20:13.539Z,482.40
2023-02-20T01:20:24.623Z,482.51
2023-02-20T01:20:36.598Z,482.72
2023-02-20T01:20:47.588Z,482.56
2023-02-20T01:20:59.564Z,482.52
2023-02-20T01:21:10.556Z,482.61
2023-02-20T01:21:21.532Z,482.83
2023-02-20T01:21:32.614Z,482.91
2023-02-20T01:21:44.577Z,482.55
2023-02-20T01:21:55.566Z,482.23
2023-02-20T01:22:06.597Z,482.23
2023-02-20T01:22:17.586Z,482.32
2023-02-20T01:22:28.594Z,482.41
2023-02-20T01:22:39.577Z,482.34
2023-02-20T01:22:50.569Z,482.56
2023-02-20T01:23:01.561Z,482.73
2023-02-20T01:23:12.548Z,482.58
2023-02-20T01:23:23.629Z,482.33
2023-02-20T01:23:35.592Z,482.36
2023-02-20T01:23:47.593Z,482.52
2023-02-20T01:23:58.573Z,482.36
2023-02-20T01:24:09.570Z,482.28
2023-02-20T01:24:20.568Z,482.39
2023-02-20T01:24:31.581Z,482.38
2023-02-20T01:24:42.589Z,482.30
2023-02-20T01:24:53.570Z,482.39
2023-02-20T01:25:05.561Z,482.64
2023-02-20T01:25:16.561Z,482.56
2023-02-20T01:25:27.538Z,482.52
2023-02-20T01:25:38.537Z,482.67
2023-02-20T01:25:49.537Z,482.70
2023-02-20T01:26:00.632Z,482.76
2023-02-20T01:26:12.959Z,482.83
2023-02-20T01:26:24.615Z,482.97
2023-02-20T01:26:36.557Z,483.00
2023-02-20T01:26:47.557Z,482.89
2023-02-20T01:26:58.541Z,482.90
2023-02-20T01:27:09.538Z,483.01
2023-02-20T01:27:20.551Z,483.13
2023-02-20T01:27:31.541Z,483.04
2023-02-20T01:27:42.532Z,482.91
2023-02-20T01:27:53.617Z,482.80
2023-02-20T01:28:05.601Z,482.60
2023-02-20T01:28:16.583Z,482.86
2023-02-20T01:28:27.571Z,483.06
2023-02-20T01:28:38.591Z,483.15
2023-02-20T01:28:49.592Z,483.18
2023-02-20T01:29:00.591Z,483.19
2023-02-20T01:29:12.581Z,482.71
2023-02-20T01:29:23.569Z,482.67
2023-02-20T01:29:34.585Z,482.96
2023-02-20T01:29:45.573Z,483.16
2023-02-20T01:29:56.557Z,482.89
2023-02-20T01:30:07.565Z,482.97
2023-02-20T01:30:18.612Z,482.88
2023-02-20T01:30:29.668Z,482.79
2023-02-20T01:30:41.627Z,483.27
2023-02-20T01:30:53.595Z,483.33
2023-02-20T01:31:04.691Z,483.36
2023-02-20T01:31:16.733Z,483.34
2023-02-20T01:31:27.628Z,483.49
2023-02-20T01:31:38.641Z,483.63
2023-02-20T01:31:49.696Z,483.72
2023-02-20T01:32:00.741Z,483.69
2023-02-20T01:32:11.624Z,483.71
2023-02-20T01:32:23.584Z,483.65
2023-02-20T01:32:34.586Z,483.78
2023-02-20T01:32:45.571Z,483.86
2023-02-20T01:32:56.566Z,483.82
2023-02-20T01:33:07.563Z,483.77
2023-02-20T01:33:18.558Z,483.87
2023-02-20T01:33:29.536Z,483.89
2023-02-20T01:33:40.616Z,483.86
2023-02-20T01:33:52.583Z,483.43
2023-02-20T01:34:04.570Z,483.53
2023-02-20T01:34:15.551Z,483.78
2023-02-20T01:34:26.551Z,483.78
2023-02-20T01:34:37.558Z,483.90
2023-02-20T01:34:48.544Z,483.78
2023-02-20T01:34:59.548Z,483.94
2023-02-20T01:35:10.546Z,484.15
2023-02-20T01:35:21.539Z,484.15
2023-02-20T01:35:32.631Z,484.18
2023-02-20T01:35:44.593Z,484.31
2023-02-20T01:35:55.588Z,484.40
2023-02-20T01:36:06.578Z,484.63
2023-02-20T01:36:17.581Z,484.61
2023-02-20T01:36:28.590Z,484.59
2023-02-20T01:36:40.576Z,484.43
2023-02-20T01:36:51.561Z,484.48
2023-02-20T01:37:02.563Z,484.62
2023-02-20T01:37:13.547Z,484.70
2023-02-20T01:37:24.620Z,484.77
2023-02-20T01:37:36.572Z,484.91
2023-02-20T01:37:47.557Z,484.96
2023-02-20T01:37:58.549Z,485.06
2023-02-20T01:38:09.570Z,485.14
2023-02-20T01:38:20.568Z,485.10
2023-02-20T01:38:31.564Z,485.06
2023-02-20T01:38:42.551Z,485.21
2023-02-20T01:38:53.542Z,485.19
2023-02-20T01:39:04.632Z,485.09
2023-02-20T01:39:16.588Z,485.06
2023-02-20T01:39:27.570Z,485.07
2023-02-20T01:39:38.576Z,485.20
2023-02-20T01:39:49.577Z,485.29
2023-02-20T01:40:00.557Z,485.22
2023-02-20T01:40:11.552Z,485.18
2023-02-20T01:40:22.554Z,485.05
2023-02-20T01:40:33.552Z,484.84
2023-02-20T01:40:44.635Z,484.61
2023-02-20T01:40:56.623Z,484.62
2023-02-20T01:41:08.618Z,484.67
2023-02-20T01:41:20.579Z,484.55
2023-02-20T01:41:31.582Z,484.55
2023-02-20T01:41:42.572Z,484.52
2023-02-20T01:41:53.554Z,484.51
2023-02-20T01:42:04.553Z,484.60
2023-02-20T01:42:15.556Z,484.45
2023-02-20T01:42:26.545Z,484.00
2023-02-20T01:42:37.544Z,484.12
2023-02-20T01:42:48.649Z,484.47
2023-02-20T01:43:00.615Z,483.97
2023-02-20T01:43:12.603Z,483.76
2023-02-20T01:43:24.609Z,483.91
2023-02-20T01:43:36.586Z,484.04
2023-02-20T01:43:47.567Z,484.10
2023-02-20T01:43:58.553Z,484.14
2023-02-20T01:44:09.621Z,484.15
2023-02-20T01:44:21.630Z,484.11
2023-02-20T01:44:33.595Z,483.88
2023-02-20T01:44:44.581Z,483.85
2023-02-20T01:44:55.570Z,483.90
2023-02-20T01:45:06.560Z,483.79
2023-02-20T01:45:17.556Z,483.70
2023-02-20T01:45:28.549Z,483.84
2023-02-20T01:45:39.560Z,483.67
2023-02-20T01:45:50.545Z,483.52
2023-02-20T01:46:01.585Z,483.59
2023-02-20T01:46:13.000Z,483.72
2023-02-20T01:46:23.612Z,483.62
2023-02-20T01:46:35.587Z,483.52
2023-02-20T01:46:47.634Z,483.34
2023-02-20T01:46:58.562Z,483.27
2023-02-20T01:47:09.586Z,483.23
2023-02-20T01:47:20.566Z,483.18
2023-02-20T01:47:31.557Z,483.36
2023-02-20T01:47:42.547Z,483.51
2023-02-20T01:47:53.623Z,483.39
2023-02-20T01:48:05.563Z,483.46
2023-02-20T01:48:16.576Z,483.47
2023-02-20T01:48:27.583Z,483.53
2023-02-20T01:48:38.583Z,483.46
2023-02-20T01:48:49.602Z,483.50
2023-02-20T01:49:01.572Z,484.00
2023-02-20T01:49:12.564Z,483.86
2023-02-20T01:49:23.581Z,483.91
2023-02-20T01:49:35.565Z,483.79
2023-02-20T01:49:46.580Z,483.79
2023-02-20T01:49:57.565Z,484.00
2023-02-20T01:50:08.556Z,483.87
2023-02-20T01:50:19.544Z,483.56
2023-02-20T01:50:30.550Z,484.08
2023-02-20T01:50:41.642Z,483.92
2023-02-20T01:50:53.536Z,483.68
2023-02-20T01:51:04.559Z,483.82
2023-02-20T01:51:15.536Z,483.56
2023-02-20T01:51:26.581Z,483.17
2023-02-20T01:51:37.576Z,483.51
2023-02-20T01:51:48.576Z,483.66
2023-02-20T01:51:59.565Z,483.62
2023-02-20T01:52:10.532Z,483.62
2023-02-20T01:52:21.632Z,483.59
2023-02-20T01:52:33.602Z,483.67
2023-02-20T01:52:45.569Z,483.53
2023-02-20T01:52:56.569Z,483.47
2023-02-20T01:53:07.557Z,483.29
2023-02-20T01:53:18.552Z,483.41
2023-02-20T01:53:29.539Z,483.54
2023-02-20T01:53:40.634Z,483.61
2023-02-20T01:53:52.585Z,483.75
2023-02-20T01:54:03.578Z,483.92
2023-02-20T01:54:14.572Z,484.01
2023-02-20T01:54:25.974Z,484.16
2023-02-20T01:54:36.572Z,484.05
2023-02-20T01:54:47.566Z,483.91
2023-02-20T01:54:58.571Z,483.82
2023-02-20T01:55:09.603Z,483.99
2023-02-20T01:55:20.583Z,484.22
2023-02-20T01:55:31.583Z,484.35
2023-02-20T01:55:42.597Z,484.47
2023-02-20T01:55:53.599Z,484.36
2023-02-20T01:56:04.600Z,484.21
2023-02-20T01:56:15.605Z,484.20
2023-02-20T01:56:26.597Z,484.45
2023-02-20T01:56:37.597Z,484.47
2023-02-20T01:56:48.631Z,484.55
2023-02-20T01:57:00.616Z,484.68
2023-02-20T01:57:11.611Z,484.86
2023-02-20T01:57:22.599Z,484.93
2023-02-20T01:57:33.603Z,484.87
2023-02-20T01:57:44.593Z,484.89
2023-02-20T01:57:55.621Z,485.26
2023-02-20T01:58:07.583Z,485.37
2023-02-20T01:58:18.587Z,484.96
2023-02-20T01:58:29.584Z,484.97
2023-02-20T01:58:40.602Z,485.16
2023-02-20T01:58:52.579Z,485.03
2023-02-20T01:59:03.596Z,484.80
2023-02-20T01:59:15.589Z,484.79
2023-02-20T01:59:26.596Z,485.16
2023-02-20T01:59:37.625Z,485.37
2023-02-20T01:59:49.608Z,485.72
2023-02-20T02:00:01.590Z,485.41
2023-02-20T02:00:12.590Z,485.44
2023-02-20T02:00:23.604Z,485.40
2023-02-20T02:00:34.642Z,485.33
2023-02-20T02:00:46.629Z,485.60
2023-02-20T02:00:58.643Z,485.79
2023-02-20T02:01:10.679Z,485.73
2023-02-20T02:01:21.627Z,485.61
2023-02-20T02:01:33.625Z,485.42
2023-02-20T02:01:45.630Z,485.77
2023-02-20T02:01:57.645Z,485.74
2023-02-20T02:02:09.647Z,485.52
2023-02-20T02:02:21.596Z,485.49
2023-02-20T02:02:32.587Z,485.77
2023-02-20T02:02:43.611Z,485.84
2023-02-20T02:02:54.615Z,485.98
2023-02-20T02:03:06.577Z,485.77
2023-02-20T02:03:17.590Z,485.85
2023-02-20T02:03:28.598Z,486.04
2023-02-20T02:03:39.620Z,486.08
2023-02-20T02:03:51.606Z,486.21
2023-02-20T02:04:02.620Z,486.26
2023-02-20T02:04:14.590Z,486.67
2023-02-20T02:04:25.592Z,486.88
2023-02-20T02:04:36.594Z,486.64
2023-02-20T02:04:47.601Z,486.39
2023-02-20T02:04:58.606Z,486.39
2023-02-20T02:05:09.594Z,486.59
2023-02-20T02:05:20.611Z,486.19
2023-02-20T02:05:32.577Z,486.49
2023-02-20T02:05:44.586Z,485.99
2023-02-20T02:05:55.599Z,486.65
2023-02-20T02:06:06.599Z,486.15
2023-02-20T02:06:17.594Z,486.36
2023-02-20T02:06:28.593Z,486.22
2023-02-20T02:06:39.597Z,485.96
2023-02-20T02:06:50.601Z,486.19
2023-02-20T02:07:01.601Z,486.38
2023-02-20T02:07:12.607Z,486.44
2023-02-20T02:07:23.626Z,486.51
2023-02-20T02:07:35.643Z,486.51
2023-02-20T02:07:47.643Z,486.55
2023-02-20T02:07:58.560Z,486.66
2023-02-20T02:08:09.572Z,486.61
2023-02-20T02:08:20.578Z,486.55
2023-02-20T02:08:31.578Z,486.63
2023-02-20T02:08:42.571Z,486.56
2023-02-20T02:08:53.563Z,486.34
2023-02-20T02:09:04.587Z,486.42
2023-02-20T02:09:15.601Z,486.62
2023-02-20T02:09:26.591Z,486.60
2023-02-20T02:09:38.582Z,486.46
2023-02-20T02:09:49.600Z,486.33
2023-02-20T02:10:00.627Z,486.23
2023-02-20T02:10:12.600Z,486.07
2023-02-20T02:10:23.609Z,486.08
2023-02-20T02:10:34.604Z,485.97
2023-02-20T02:10:45.608Z,485.99
2023-02-20T02:10:57.618Z,486.28
2023-02-20T02:11:09.581Z,486.32
2023-02-20T02:11:20.646Z,486.29
2023-02-20T02:11:32.607Z,486.17
2023-02-20T02:11:44.585Z,486.14
2023-02-20T02:11:55.582Z,486.13
2023-02-20T02:12:06.581Z,486.19
2023-02-20T02:12:17.590Z,486.27
2023-02-20T02:12:28.606Z,486.17
2023-02-20T02:12:40.584Z,486.06
2023-02-20T02:12:51.603Z,486.31
2023-02-20T02:13:03.599Z,486.54
2023-02-20T02:13:14.604Z,486.41
2023-02-20T02:13:25.602Z,486.12
2023-02-20T02:13:37.575Z,486.28
2023-02-20T02:13:48.594Z,486.24
2023-02-20T02:13:59.593Z,486.60
2023-02-20T02:14:10.610Z,487.04
2023-02-20T02:14:22.578Z,487.07
2023-02-20T02:14:33.594Z,487.02
2023-02-20T02:14:45.579Z,487.08
2023-02-20T02:14:56.576Z,486.98
2023-02-20T02:15:07.566Z,486.97
2023-02-20T02:15:18.566Z,486.98
2023-02-20T02:15:29.571Z,487.03
2023-02-20T02:15:40.599Z,487.05
2023-02-20T02:15:51.627Z,487.11
2023-02-20T02:16:02.564Z,487.16
2023-02-20T02:16:14.014Z,487.39
2023-02-20T02:16:24.787Z,487.38
2023-02-20T02:16:35.652Z,487.40
2023-02-20T02:16:46.566Z,487.48
2023-02-20T02:16:57.556Z,487.38
2023-02-20T02:17:08.580Z,487.69
2023-02-20T02:17:19.585Z,487.79
2023-02-20T02:17:30.600Z,487.73
2023-02-20T02:17:42.581Z,487.91
2023-02-20T02:17:53.605Z,487.99
2023-02-20T02:18:05.583Z,487.85
2023-02-20T02:18:16.591Z,487.93
2023-02-20T02:18:27.604Z,487.92
2023-02-20T02:18:39.614Z,488.55
2023-02-20T02:18:50.603Z,488.67
2023-02-20T02:19:01.610Z,488.34
2023-02-20T02:19:12.611Z,488.16
2023-02-20T02:19:24.588Z,487.94
2023-02-20T02:19:35.593Z,488.06
2023-02-20T02:19:46.590Z,488.04
2023-02-20T02:19:57.594Z,488.09